Time;durP1;ratioP1;P1;durP2;ratioP2;P2;SDS_P1;SDS_P2;PMS_P1;PMS_P2;Temp;Humidity;BMP_temperature;BMP_pressure;BME280_temperature;BME280_humidity;BME280_pressure;Samples;Min_cycle;Max_cycle;Signal;HPM_P1;HPM_P2
2022/04/13 00:02:05;;;;;;;4.07;2.60;;;17.30;60.00;;;;;;5050158;28;20057;-69
2022/04/13 00:04:32;;;;;;;4.07;2.85;;;16.50;59.60;;;;;;5050158;28;20055;-70
2022/04/13 00:07:00;;;;;;;5.88;3.00;;;17.30;59.90;;;;;;5051699;28;20067;-69
2022/04/13 00:09:26;;;;;;;3.47;2.47;;;15.50;59.00;;;;;;5051174;28;20051;-69
2022/04/13 00:11:54;;;;;;;4.68;2.75;;;15.60;58.80;;;;;;5050314;28;20052;-69
2022/04/13 00:14:22;;;;;;;7.03;3.22;;;16.50;59.40;;;;;;5050251;28;20057;-69
2022/04/13 00:16:49;;;;;;;3.42;2.67;;;16.50;59.80;;;;;;5049935;28;20474;-69
2022/04/13 00:19:16;;;;;;;3.95;2.40;;;16.50;59.40;;;;;;5044601;28;20057;-70
2022/04/13 00:21:42;;;;;;;4.68;2.60;;;16.00;59.20;;;;;;5031522;28;20071;-69
2022/04/13 00:24:13;;;;;;;4.50;3.03;;;16.40;59.70;;;;;;5031226;28;20049;-69
2022/04/13 00:26:39;;;;;;;3.78;2.78;;;15.90;59.30;;;;;;5031749;28;20449;-69
2022/04/13 00:29:06;;;;;;;4.57;2.75;;;17.00;60.00;;;;;;5030000;28;20518;-70
2022/04/13 00:31:33;;;;;;;3.78;2.65;;;16.50;59.60;;;;;;5030169;28;20049;-69
2022/04/13 00:33:59;;;;;;;4.32;2.75;;;17.10;60.10;;;;;;5034309;28;20056;-69
2022/04/13 00:36:26;;;;;;;3.47;2.60;;;16.10;59.50;;;;;;5051152;28;20494;-70
2022/04/13 00:38:53;;;;;;;3.92;2.60;;;16.40;59.40;;;;;;5050287;28;20074;-69
2022/04/13 00:41:21;;;;;;;3.33;2.40;;;16.40;59.60;;;;;;5053354;28;20048;-69
2022/04/13 00:44:05;;;;;;;3.22;2.40;;;17.10;59.90;;;;;;5053678;28;20110;-69
2022/04/13 00:46:31;;;;;;;4.15;2.72;;;16.30;59.40;;;;;;5053574;28;20063;-69
2022/04/13 00:48:58;;;;;;;3.35;2.45;;;16.30;59.40;;;;;;5054530;28;20565;-69
2022/04/13 00:51:25;;;;;;;3.13;2.20;;;16.20;59.20;;;;;;5054283;28;20049;-69
2022/04/13 00:53:52;;;;;;;4.75;2.83;;;15.60;59.20;;;;;;5051777;28;20057;-69
2022/04/13 00:56:23;;;;;;;3.38;2.47;;;17.10;60.10;;;;;;5052996;28;20060;-70
2022/04/13 00:58:51;;;;;;;3.25;2.75;;;15.70;58.90;;;;;;5054629;28;20052;-69
2022/04/13 01:01:17;;;;;;;3.95;2.50;;;16.40;58.90;;;;;;5054110;28;20059;-69
2022/04/13 01:03:44;;;;;;;4.35;3.00;;;16.30;59.30;;;;;;5054591;28;20503;-69
2022/04/13 01:06:11;;;;;;;3.80;2.42;;;16.40;59.30;;;;;;5053055;28;20051;-69
2022/04/13 01:08:37;;;;;;;3.65;2.42;;;16.30;59.40;;;;;;5053153;28;20052;-69
2022/04/13 01:11:04;;;;;;;3.08;2.30;;;16.40;59.70;;;;;;5052802;28;20481;-69
2022/04/13 01:13:32;;;;;;;2.65;2.08;;;16.30;59.60;;;;;;5053056;28;20083;-70
2022/04/13 01:15:59;;;;;;;3.28;2.60;;;16.30;59.60;;;;;;5034531;28;20053;-69
2022/04/13 01:18:25;;;;;;;3.72;2.35;;;16.30;56.00;;;;;;5039138;28;20045;-69
2022/04/13 01:20:53;;;;;;;3.70;2.55;;;16.20;59.40;;;;;;5053806;28;20399;-69
2022/04/13 01:23:22;;;;;;;3.22;2.50;;;16.00;59.70;;;;;;5053945;28;20076;-70
2022/04/13 01:25:49;;;;;;;4.20;2.60;;;16.30;59.50;;;;;;5054002;28;20049;-69
2022/04/13 01:28:16;;;;;;;4.63;3.10;;;16.30;59.70;;;;;;5052792;28;20055;-69
2022/04/13 01:30:44;;;;;;;2.90;2.17;;;16.20;55.30;;;;;;5052453;28;20045;-70
2022/04/13 01:33:11;;;;;;;3.35;2.13;;;16.20;60.10;;;;;;5052441;28;20136;-69
2022/04/13 01:35:37;;;;;;;3.22;2.60;;;16.50;59.70;;;;;;5037208;28;20053;-69
2022/04/13 01:38:04;;;;;;;3.50;2.60;;;16.20;57.80;;;;;;5032547;28;20083;-69
2022/04/13 01:40:32;;;;;;;3.60;2.58;;;16.20;59.60;;;;;;5032497;28;20559;-69
2022/04/13 01:42:59;;;;;;;4.47;2.30;;;16.00;59.50;;;;;;5032216;28;20053;-69
2022/04/13 01:45:26;;;;;;;4.32;2.50;;;16.30;59.60;;;;;;5033939;28;20058;-69
2022/04/13 01:47:54;;;;;;;3.10;2.00;;;15.80;59.20;;;;;;5033737;28;20483;-69
2022/04/13 01:50:21;;;;;;;3.33;2.35;;;16.20;59.30;;;;;;5032391;28;20053;-69
2022/04/13 01:52:49;;;;;;;3.20;2.28;;;16.30;59.80;;;;;;5032547;28;20057;-69
2022/04/13 01:55:15;;;;;;;3.45;2.30;;;16.30;59.30;;;;;;5033731;28;20079;-69
2022/04/13 01:57:43;;;;;;;3.08;2.42;;;16.30;59.60;;;;;;5031666;28;20072;-69
2022/04/13 02:00:12;;;;;;;2.63;2.00;;;15.70;59.50;;;;;;5033536;28;20574;-69
2022/04/13 02:02:39;;;;;;;3.08;2.17;;;16.60;59.90;;;;;;5032157;28;20137;-69
2022/04/13 02:05:06;;;;;;;3.00;2.30;;;15.60;59.40;;;;;;5033382;28;20491;-69
2022/04/13 02:07:34;;;;;;;3.08;2.08;;;16.60;59.90;;;;;;5031652;28;20046;-69
2022/04/13 02:10:00;;;;;;;2.78;1.95;;;16.20;59.50;;;;;;5033242;28;20100;-70
2022/04/13 02:12:27;;;;;;;4.22;2.40;;;16.20;59.80;;;;;;5033339;28;20474;-69
2022/04/13 02:14:55;;;;;;;3.00;2.30;;;16.40;59.80;;;;;;5033110;28;20072;-69
2022/04/13 02:17:22;;;;;;;2.75;2.15;;;16.30;59.80;;;;;;5031962;28;20487;-69
2022/04/13 02:19:49;;;;;;;3.65;2.40;;;;;;;;;;5031769;28;20064;-70
2022/04/13 02:22:16;;;;;;;3.97;2.15;;;16.30;59.60;;;;;;5032916;28;20053;-69
2022/04/13 02:24:42;;;;;;;3.65;2.20;;;16.30;59.80;;;;;;5031544;28;20057;-69
2022/04/13 02:27:09;;;;;;;3.30;2.17;;;16.20;57.00;;;;;;5033044;28;20055;-69
2022/04/13 02:29:36;;;;;;;2.83;1.88;;;16.80;60.00;;;;;;5031000;28;20477;-69
2022/04/13 02:32:05;;;;;;;3.00;2.20;;;16.20;53.30;;;;;;5031743;28;20140;-70
2022/04/13 02:34:32;;;;;;;3.15;2.10;;;15.30;59.00;;;;;;5040672;28;20049;-69
2022/04/13 02:36:59;;;;;;;3.35;2.40;;;15.60;59.10;;;;;;5051441;28;20055;-69
2022/04/13 02:39:29;;;;;;;2.63;2.00;;;16.40;59.60;;;;;;5052786;28;20088;-69
2022/04/13 02:41:56;;;;;;;3.10;2.25;;;16.80;59.90;;;;;;5051629;28;20426;-69
2022/04/13 02:44:23;;;;;;;2.15;1.73;;;16.40;59.70;;;;;;5050943;28;20063;-69
2022/04/13 02:46:49;;;;;;;2.28;1.90;;;15.40;59.10;;;;;;5052380;28;20059;-69
2022/04/13 02:49:17;;;;;;;3.15;1.90;;;16.30;59.50;;;;;;5043999;28;20073;-69
2022/04/13 02:51:44;;;;;;;4.97;2.40;;;15.50;59.00;;;;;;5030943;28;20088;-69
2022/04/13 02:54:11;;;;;;;2.97;1.90;;;16.40;59.70;;;;;;5031060;28;20053;-69
2022/04/13 02:56:38;;;;;;;2.70;2.10;;;15.90;59.50;;;;;;5031132;28;20391;-70
2022/04/13 02:59:04;;;;;;;2.90;2.10;;;15.80;59.10;;;;;;5032277;28;20045;-69
2022/04/13 03:01:31;;;;;;;4.00;2.08;;;15.80;59.30;;;;;;5030595;28;20049;-69
2022/04/13 03:03:58;;;;;;;3.55;2.13;;;16.30;59.30;;;;;;5014319;28;20060;-70
2022/04/13 03:06:26;;;;;;;3.20;2.00;;;15.90;59.30;;;;;;5031206;28;20058;-69
2022/04/13 03:08:53;;;;;;;3.53;2.40;;;16.40;59.40;;;;;;5031408;28;20092;-69
2022/04/13 03:11:20;;;;;;;3.13;2.35;;;16.10;59.60;;;;;;5050237;28;20059;-69
2022/04/13 03:13:47;;;;;;;3.28;2.13;;;;;;;;;;5051058;28;20057;-69
2022/04/13 03:16:14;;;;;;;3.25;2.22;;;16.70;59.90;;;;;;5050941;28;20677;-69
2022/04/13 03:18:40;;;;;;;2.72;2.15;;;16.40;59.50;;;;;;5051935;28;20044;-69
2022/04/13 03:21:07;;;;;;;2.60;2.00;;;16.10;59.40;;;;;;5051509;28;20047;-69
2022/04/13 03:23:35;;;;;;;3.17;2.13;;;16.20;59.70;;;;;;5050865;28;20055;-69
2022/04/13 03:26:02;;;;;;;2.40;1.90;;;16.10;59.60;;;;;;5050859;28;20490;-69
2022/04/13 03:28:28;;;;;;;2.67;2.10;;;16.10;59.80;;;;;;5050334;28;20048;-70
2022/04/13 03:30:56;;;;;;;3.03;2.10;;;16.70;59.60;;;;;;5035453;28;20056;-69
2022/04/13 03:33:23;;;;;;;2.53;1.80;;;16.40;59.70;;;;;;5030661;28;20502;-70
2022/04/13 03:35:49;;;;;;;2.65;2.10;;;16.20;59.40;;;;;;5031705;28;20052;-69
2022/04/13 03:38:16;;;;;;;3.33;1.95;;;16.40;59.40;;;;;;5032020;28;20398;-69
2022/04/13 03:40:44;;;;;;;2.70;2.03;;;16.20;59.60;;;;;;5031357;28;20072;-70
2022/04/13 03:43:11;;;;;;;2.63;1.92;;;16.20;59.60;;;;;;5030471;28;20052;-70
2022/04/13 03:45:38;;;;;;;2.85;2.15;;;16.20;59.40;;;;;;5030645;28;20056;-69
2022/04/13 03:48:05;;;;;;;2.67;1.95;;;15.60;59.30;;;;;;5031554;28;20063;-69
2022/04/13 03:50:32;;;;;;;2.33;1.90;;;16.90;59.70;;;;;;5031369;28;20089;-69
2022/04/13 03:52:58;;;;;;;2.75;1.92;;;16.10;59.50;;;;;;5030545;28;20388;-69
2022/04/13 03:55:25;;;;;;;2.33;1.88;;;16.30;59.70;;;;;;5031610;28;20052;-69
2022/04/13 03:57:54;;;;;;;2.65;2.00;;;16.30;59.40;;;;;;5030080;28;20056;-69
2022/04/13 04:00:20;;;;;;;3.83;2.00;;;16.10;59.30;;;;;;5030102;28;20060;-69
2022/04/13 04:02:49;;;;;;;2.60;2.10;;;15.70;59.50;;;;;;5031618;28;20081;-69
2022/04/13 04:05:17;;;;;;;3.08;2.28;;;16.80;59.70;;;;;;5030392;28;20068;-70
2022/04/13 04:07:43;;;;;;;2.67;2.03;;;15.70;59.20;;;;;;5030425;28;20537;-70
2022/04/13 04:10:11;;;;;;;2.70;1.95;;;16.20;53.30;;;;;;5036893;28;20045;-70
2022/04/13 04:12:38;;;;;;;2.67;2.00;;;16.20;59.50;;;;;;5049803;28;20053;-69
2022/04/13 04:15:08;;;;;;;2.78;2.10;;;16.10;59.50;;;;;;5053613;28;20075;-69
2022/04/13 04:17:35;;;;;;;2.58;1.88;;;16.30;59.60;;;;;;5053873;28;20152;-69
2022/04/13 04:20:01;;;;;;;2.58;1.85;;;16.10;59.70;;;;;;5054864;28;20045;-69
2022/04/13 04:22:29;;;;;;;2.60;1.90;;;16.20;53.90;;;;;;5054053;28;20131;-70
2022/04/13 04:24:55;;;;;;;2.63;2.13;;;16.20;59.60;;;;;;5053846;28;20053;-69
2022/04/13 04:27:22;;;;;;;3.10;2.08;;;15.40;58.90;;;;;;5053795;28;20509;-70
2022/04/13 04:29:49;;;;;;;2.78;1.95;;;16.30;59.40;;;;;;5044828;28;20045;-69
2022/04/13 04:32:17;;;;;;;2.55;2.00;;;16.00;59.50;;;;;;5033708;28;20083;-69
2022/04/13 04:34:43;;;;;;;2.60;1.90;;;15.60;59.30;;;;;;5034719;28;20064;-69
2022/04/13 04:37:10;;;;;;;2.33;2.00;;;16.10;59.30;;;;;;5033389;28;20539;-69
2022/04/13 04:39:37;;;;;;;3.08;2.15;;;15.60;54.80;;;;;;5033363;28;20053;-70
2022/04/13 04:42:05;;;;;;;2.97;2.20;;;16.20;59.60;;;;;;5033663;28;20053;-70
2022/04/13 04:44:32;;;;;;;2.75;2.00;;;;;;;;;;5040727;28;20067;-70
2022/04/13 04:46:59;;;;;;;2.50;1.98;;;;;;;;;;5053357;28;20110;-69
2022/04/13 04:49:27;;;;;;;2.88;1.83;;;16.30;59.40;;;;;;5036370;28;20528;-70
2022/04/13 04:51:53;;;;;;;2.72;1.80;;;16.30;59.30;;;;;;5054444;28;20049;-70
2022/04/13 04:54:20;;;;;;;2.78;2.00;;;16.30;59.60;;;;;;5053165;28;20049;-70
2022/04/13 04:56:47;;;;;;;2.40;1.90;;;;;;;;;;5053228;28;20060;-69
2022/04/13 04:59:15;;;;;;;2.97;2.35;;;16.30;59.60;;;;;;5053221;28;20060;-70
2022/04/13 05:01:42;;;;;;;2.72;2.10;;;16.70;59.70;;;;;;5053185;28;20053;-70
2022/04/13 05:04:09;;;;;;;2.72;2.10;;;15.80;59.30;;;;;;5052130;28;20059;-70
2022/04/13 05:06:37;;;;;;;2.92;1.95;;;16.00;59.40;;;;;;5052271;28;20090;-70
2022/04/13 05:09:04;;;;;;;3.40;1.90;;;16.20;59.60;;;;;;5053120;28;20498;-70
2022/04/13 05:11:31;;;;;;;3.53;2.03;;;16.70;59.60;;;;;;5052813;28;20061;-70
2022/04/13 05:13:57;;;;;;;2.40;1.98;;;16.10;59.20;;;;;;5052920;28;20504;-70
2022/04/13 05:16:24;;;;;;;3.03;2.08;;;16.30;59.40;;;;;;5052871;28;20057;-69
2022/04/13 05:18:51;;;;;;;3.30;2.15;;;16.30;59.30;;;;;;5052409;28;20135;-69
2022/04/13 05:21:18;;;;;;;2.55;1.90;;;15.70;59.20;;;;;;5053776;28;20486;-69
2022/04/13 05:23:46;;;;;;;2.55;1.88;;;15.60;58.90;;;;;;5053847;28;20099;-69
2022/04/13 05:26:12;;;;;;;2.40;1.88;;;15.80;59.30;;;;;;5050670;28;20048;-69
2022/04/13 05:28:39;;;;;;;2.05;1.83;;;15.60;59.20;;;;;;5053977;28;20406;-69
2022/04/13 05:31:07;;;;;;;3.33;2.10;;;16.40;59.70;;;;;;5052278;28;20061;-70
2022/04/13 05:33:33;;;;;;;2.05;1.80;;;15.90;59.20;;;;;;5052575;28;20119;-69
2022/04/13 05:36:00;;;;;;;2.80;2.00;;;16.40;59.50;;;;;;5053641;28;20557;-69
2022/04/13 05:38:27;;;;;;;2.65;2.10;;;16.90;59.80;;;;;;5052281;28;20075;-69
2022/04/13 05:40:56;;;;;;;2.65;1.90;;;16.30;59.60;;;;;;5052069;28;20052;-69
2022/04/13 05:43:22;;;;;;;2.83;2.10;;;16.70;59.60;;;;;;5052352;28;20053;-69
2022/04/13 05:45:49;;;;;;;4.82;2.10;;;16.40;59.50;;;;;;5050789;28;20053;-69
2022/04/13 05:48:16;;;;;;;2.85;2.10;;;16.00;59.10;;;;;;5052437;28;20082;-69
2022/04/13 05:50:42;;;;;;;2.50;1.92;;;16.50;59.40;;;;;;5052855;28;20049;-70
2022/04/13 05:53:09;;;;;;;3.40;2.20;;;15.90;59.20;;;;;;5053301;28;20041;-70
2022/04/13 05:55:36;;;;;;;2.97;2.10;;;16.20;59.30;;;;;;5052241;28;20104;-70
2022/04/13 05:58:04;;;;;;;3.35;2.05;;;16.50;59.40;;;;;;5053159;28;20049;-70
2022/04/13 06:00:31;;;;;;;2.45;1.90;;;16.60;59.70;;;;;;5053081;28;20048;-70
2022/04/13 06:02:57;;;;;;;2.42;1.85;;;16.30;59.30;;;;;;5052885;28;20048;-71
2022/04/13 06:05:24;;;;;;;2.95;2.00;;;15.60;58.90;;;;;;5050301;28;20878;-70
2022/04/13 06:07:53;;;;;;;3.13;2.10;;;16.40;56.20;;;;;;5032284;28;20403;-70
2022/04/13 06:10:20;;;;;;;2.92;2.10;;;16.50;59.70;;;;;;5031325;28;20064;-70
2022/04/13 06:12:47;;;;;;;3.03;1.95;;;16.00;59.30;;;;;;5033082;28;20051;-70
2022/04/13 06:15:15;;;;;;;3.20;2.20;;;16.50;59.40;;;;;;5031942;28;20087;-70
2022/04/13 06:17:42;;;;;;;2.38;2.03;;;16.50;59.50;;;;;;5033061;28;20049;-70
2022/04/13 06:20:09;;;;;;;2.72;2.15;;;16.70;59.70;;;;;;5032635;28;20132;-70
2022/04/13 06:22:38;;;;;;;2.50;2.00;;;17.30;60.10;;;;;;5031732;28;20075;-70
2022/04/13 06:25:05;;;;;;;2.63;2.10;;;16.10;59.20;;;;;;5037781;28;20053;-70
2022/04/13 06:27:32;;;;;;;3.70;2.17;;;16.80;59.70;;;;;;5043170;28;20049;-70
2022/04/13 06:29:59;;;;;;;2.58;2.20;;;16.50;59.30;;;;;;5040527;28;20048;-69
2022/04/13 06:32:33;;;;;;;3.70;2.20;;;16.60;57.20;;;;;;5042370;28;20485;-70
2022/04/13 06:35:00;;;;;;;3.55;2.17;;;16.00;58.30;;;;;;5042949;28;20060;-70
2022/04/13 06:37:27;;;;;;;3.63;2.38;;;16.10;59.00;;;;;;5040627;28;20048;-71
2022/04/13 06:39:54;;;;;;;2.65;1.95;;;;;;;;;;5041818;28;20144;-70
2022/04/13 06:42:22;;;;;;;3.40;2.20;;;15.70;58.60;;;;;;5039193;28;20133;-70
2022/04/13 06:44:49;;;;;;;2.67;2.00;;;17.20;59.30;;;;;;5034389;28;20049;-70
2022/04/13 06:47:16;;;;;;;2.85;2.08;;;16.20;59.10;;;;;;5032539;28;20053;-70
2022/04/13 06:49:44;;;;;;;2.65;2.20;;;16.90;59.60;;;;;;5032306;28;20081;-70
2022/04/13 06:52:11;;;;;;;2.75;2.00;;;17.30;59.50;;;;;;5032641;28;20084;-69
2022/04/13 06:54:38;;;;;;;3.40;2.20;;;16.90;58.90;;;;;;5037801;28;20052;-68
2022/04/13 06:57:05;;;;;;;2.13;1.90;;;16.90;53.60;;;;;;5051339;28;20061;-68
2022/04/13 06:59:31;;;;;;;2.75;2.10;;;17.70;59.50;;;;;;5041832;28;20067;-67
2022/04/13 07:01:58;;;;;;;5.80;2.25;;;16.40;58.90;;;;;;5042059;28;20076;-68
2022/04/13 07:04:25;;;;;;;2.58;1.90;;;17.20;59.40;;;;;;5041468;28;20517;-68
2022/04/13 07:06:53;;;;;;;3.38;2.10;;;17.20;60.40;;;;;;5041342;28;20072;-67
2022/04/13 07:09:19;;;;;;;3.35;2.20;;;17.20;59.10;;;;;;5042771;28;20058;-67
2022/04/13 07:11:46;;;;;;;2.75;1.90;;;17.50;58.90;;;;;;5040185;28;20080;-68
2022/04/13 07:14:14;;;;;;;2.67;2.00;;;17.20;58.90;;;;;;5023216;28;20182;-67
2022/04/13 07:16:40;;;;;;;3.67;2.25;;;17.40;58.60;;;;;;5039605;28;20045;-67
2022/04/13 07:19:07;;;;;;;3.40;2.20;;;16.40;57.40;;;;;;5040394;28;20508;-68
2022/04/13 07:21:34;;;;;;;2.70;1.90;;;17.80;58.30;;;;;;5041275;28;20044;-67
2022/04/13 07:24:02;;;;;;;3.10;2.20;;;17.50;53.40;;;;;;5047996;28;20057;-68
2022/04/13 07:26:30;;;;;;;3.03;2.10;;;;;;;;;;5051968;28;20084;-67
2022/04/13 07:28:56;;;;;;;2.80;2.05;;;17.00;57.90;;;;;;5050570;28;20060;-66
2022/04/13 07:31:23;;;;;;;2.88;1.75;;;17.20;58.10;;;;;;5050495;28;20413;-67
2022/04/13 07:33:50;;;;;;;2.30;1.95;;;16.80;57.80;;;;;;5051884;28;20055;-67
2022/04/13 07:36:16;;;;;;;2.97;2.10;;;17.70;58.10;;;;;;5048549;28;20417;-66
2022/04/13 07:38:43;;;;;;;3.30;1.90;;;18.40;58.50;;;;;;5047361;28;20056;-67
2022/04/13 07:41:11;;;;;;;2.92;1.90;;;17.90;57.90;;;;;;5041194;28;20052;-66
2022/04/13 07:43:38;;;;;;;3.70;2.25;;;18.00;57.90;;;;;;5048804;28;20485;-66
2022/04/13 07:46:04;;;;;;;5.70;2.17;;;18.10;57.80;;;;;;5040221;28;20081;-67
2022/04/13 07:48:31;;;;;;;2.65;1.92;;;;;;;;;;5038036;28;20497;-68
2022/04/13 07:50:58;;;;;;;2.65;2.00;;;18.10;57.70;;;;;;5034320;28;20089;-66
2022/04/13 07:53:26;;;;;;;2.47;1.73;;;18.10;57.80;;;;;;5035826;28;20537;-68
2022/04/13 07:55:53;;;;;;;3.00;1.80;;;18.00;52.20;;;;;;5034307;28;20053;-67
2022/04/13 07:58:21;;;;;;;4.47;1.90;;;18.00;57.90;;;;;;5041598;28;20486;-69
2022/04/13 08:00:48;;;;;;;2.35;1.92;;;17.80;57.60;;;;;;5050065;28;20063;-69
2022/04/13 08:03:15;;;;;;;2.70;1.90;;;18.20;58.40;;;;;;5041528;28;20064;-69
2022/04/13 08:05:42;;;;;;;3.97;1.90;;;18.10;52.00;;;;;;5021348;28;20059;-69
2022/04/13 08:08:08;;;;;;;2.22;1.83;;;18.30;57.70;;;;;;5044462;28;20052;-69
2022/04/13 08:10:35;;;;;;;2.75;1.83;;;18.30;57.40;;;;;;5034329;28;20083;-69
2022/04/13 08:13:02;;;;;;;2.38;1.90;;;18.20;57.90;;;;;;5051285;28;20391;-69
2022/04/13 08:15:30;;;;;;;3.35;1.80;;;18.50;58.00;;;;;;5054193;28;20053;-69
2022/04/13 08:17:56;;;;;;;2.08;1.70;;;17.80;57.20;;;;;;5055460;28;20067;-69
2022/04/13 08:20:23;;;;;;;2.28;1.70;;;19.00;59.10;;;;;;5054651;28;20055;-69
2022/04/13 08:22:50;;;;;;;2.72;1.70;;;18.60;57.40;;;;;;5046560;28;20059;-69
2022/04/13 08:25:17;;;;;;;2.40;1.70;;;18.40;58.30;;;;;;5045353;28;20132;-70
2022/04/13 08:27:43;;;;;;;2.55;1.73;;;18.60;58.90;;;;;;5033731;28;20049;-69
2022/04/13 08:30:11;;;;;;;2.08;1.70;;;18.50;57.30;;;;;;5044659;28;20061;-69
2022/04/13 08:32:40;;;;;;;5.85;1.75;;;18.40;57.30;;;;;;5034804;28;20053;-70
2022/04/13 08:35:09;;;;;;;2.42;1.75;;;18.50;52.00;;;;;;5039326;28;20052;-69
2022/04/13 08:37:36;;;;;;;4.82;1.80;;;18.50;57.50;;;;;;5043444;28;20529;-69
2022/04/13 08:40:03;;;;;;;2.97;1.90;;;18.60;57.80;;;;;;5048804;28;20068;-69
2022/04/13 08:42:35;;;;;;;3.60;2.08;;;18.30;57.10;;;;;;5041863;28;20056;-68
2022/04/13 08:45:04;;;;;;;1.92;1.65;;;18.70;57.10;;;;;;5039974;28;20053;-68
2022/04/13 08:47:31;;;;;;;3.88;1.80;;;18.70;57.30;;;;;;5044620;28;20057;-69
2022/04/13 08:49:59;;;;;;;4.15;1.60;;;18.50;57.50;;;;;;5047306;28;20486;-68
2022/04/13 08:52:29;;;;;;;2.90;1.58;;;18.50;57.30;;;;;;5053548;28;20063;-69
2022/04/13 08:55:04;;;;;;;3.53;1.75;;;18.10;56.90;;;;;;5053523;28;20061;-67
2022/04/13 08:57:35;;;;;;;3.60;1.90;;;18.40;57.00;;;;;;5053604;28;20145;-67
2022/04/13 09:00:08;;;;;;;4.97;2.20;;;18.50;52.10;;;;;;5052281;28;20055;-66
2022/04/13 09:02:40;;;;;;;3.60;2.40;;;18.60;57.60;;;;;;5054268;28;20096;-69
2022/04/13 09:05:10;;;;;;;6.72;2.45;;;18.60;52.30;;;;;;5052848;28;20059;-68
2022/04/13 09:07:37;;;;;;;6.15;2.30;;;18.60;57.60;;;;;;5053868;28;20045;-67
2022/04/13 09:10:04;;;;;;;3.75;2.03;;;19.30;58.20;;;;;;5054049;28;20498;-68
2022/04/13 09:12:33;;;;;;;3.30;2.03;;;17.70;57.10;;;;;;5053232;28;20053;-71
2022/04/13 09:15:01;;;;;;;6.68;1.98;;;17.90;57.60;;;;;;5052716;28;20049;-69
2022/04/13 09:17:28;;;;;;;3.60;1.80;;;18.80;57.80;;;;;;5053960;28;20049;-70
2022/04/13 09:19:56;;;;;;;3.58;1.85;;;18.90;58.20;;;;;;5041901;28;20041;-71
2022/04/13 09:22:24;;;;;;;4.93;2.03;;;18.60;57.60;;;;;;5034018;28;20059;-69
2022/04/13 09:24:51;;;;;;;2.65;1.83;;;18.60;58.60;;;;;;5041631;28;20478;-69
2022/04/13 09:27:18;;;;;;;3.78;1.80;;;18.70;52.50;;;;;;5052783;28;20486;-69
2022/04/13 09:29:45;;;;;;;5.22;1.90;;;19.10;57.90;;;;;;5039025;28;20056;-69
2022/04/13 09:32:11;;;;;;;6.28;1.52;;;18.50;57.40;;;;;;5032882;28;20250;-69
2022/04/13 09:34:38;;;;;;;4.07;1.80;;;18.70;52.50;;;;;;5034212;28;20421;-69
2022/04/13 09:37:05;;;;;;;3.47;1.90;;;18.70;57.60;;;;;;5032950;28;20088;-69
2022/04/13 09:39:33;;;;;;;3.10;1.63;;;18.70;52.40;;;;;;5039629;28;20047;-71
2022/04/13 09:42:02;;;;;;;3.67;1.85;;;18.70;57.50;;;;;;5034974;28;20513;-71
2022/04/13 09:44:29;;;;;;;4.65;1.80;;;18.60;57.80;;;;;;5032337;28;20057;-72
2022/04/13 09:46:58;;;;;;;3.85;1.50;;;18.80;57.90;;;;;;5033904;28;20081;-70
2022/04/13 09:49:25;;;;;;;3.47;1.63;;;18.00;57.10;;;;;;5031080;28;20060;-69
2022/04/13 09:51:54;;;;;;;3.45;1.75;;;18.40;57.40;;;;;;5038044;28;20048;-67
2022/04/13 09:54:24;;;;;;;3.58;1.75;;;18.90;57.50;;;;;;5034894;28;20068;-70
2022/04/13 09:56:52;;;;;;;3.33;1.50;;;18.70;57.50;;;;;;5032443;28;20410;-69
2022/04/13 09:59:25;;;;;;;4.82;1.90;;;18.70;57.50;;;;;;5032222;28;20055;-69
2022/04/13 10:01:52;;;;;;;2.88;1.80;;;18.80;57.60;;;;;;5032296;28;20049;-69
2022/04/13 10:04:25;;;;;;;3.40;1.55;;;17.90;52.60;;;;;;5040696;28;20501;-69
2022/04/13 10:06:52;;;;;;;6.68;1.63;;;19.10;58.00;;;;;;5044118;28;20069;-69
2022/04/13 10:09:20;;;;;;;2.65;1.58;;;18.90;57.80;;;;;;5051185;28;20420;-70
2022/04/13 10:12:01;;;;;;;3.28;1.70;;;19.60;58.30;;;;;;5046980;28;20713;-69
2022/04/13 10:14:27;;;;;;;1.98;1.42;;;18.80;52.40;;;;;;5034100;28;20057;-69
2022/04/13 10:16:56;;;;;;;3.97;1.90;;;18.60;57.20;;;;;;5033220;28;20060;-69
2022/04/13 10:19:23;;;;;;;3.60;1.58;;;18.90;52.40;;;;;;5031731;28;20049;-70
2022/04/13 10:21:51;;;;;;;3.80;1.45;;;18.90;52.40;;;;;;5031644;28;20049;-70
2022/04/13 10:24:25;;;;;;;3.72;1.50;;;18.70;56.90;;;;;;5031589;28;20060;-69
2022/04/13 10:27:01;;;;;;;2.47;1.30;;;18.60;57.10;;;;;;5034615;28;20059;-68
2022/04/13 10:29:28;;;;;;;4.80;1.50;;;19.10;57.30;;;;;;5031677;28;20053;-68
2022/04/13 10:32:05;;;;;;;3.10;1.40;;;18.70;57.30;;;;;;5031696;28;20115;-69
2022/04/13 10:34:33;;;;;;;2.58;2.00;;;18.80;57.70;;;;;;5031293;28;20053;-69
2022/04/13 10:37:00;;;;;;;3.10;1.90;;;18.90;52.50;;;;;;5031010;28;20053;-69
2022/04/13 10:39:26;;;;;;;4.05;1.70;;;18.40;56.90;;;;;;5030915;28;20049;-69
2022/04/13 10:41:53;;;;;;;6.65;1.98;;;18.60;57.30;;;;;;5031525;28;20084;-68
2022/04/13 10:44:23;;;;;;;7.07;2.08;;;18.30;58.00;;;;;;5031505;28;20065;-68
2022/04/13 10:46:51;;;;;;;6.63;1.98;;;19.00;58.20;;;;;;5036444;28;20049;-69
2022/04/13 10:49:18;;;;;;;4.95;2.17;;;18.80;57.60;;;;;;5051250;28;20051;-69
2022/04/13 10:51:44;;;;;;;8.27;2.28;;;19.10;57.90;;;;;;5050673;28;20053;-69
2022/04/13 10:54:11;;;;;;;7.85;2.30;;;19.50;59.00;;;;;;5040733;28;20478;-69
2022/04/13 10:56:39;;;;;;;6.65;2.13;;;19.00;57.60;;;;;;5043245;28;20049;-70
2022/04/13 10:59:09;;;;;;;7.10;2.20;;;18.90;59.50;;;;;;5041453;28;20051;-69
2022/04/13 11:01:39;;;;;;;4.60;2.17;;;19.00;52.40;;;;;;5039609;28;20756;-69
2022/04/13 11:04:07;;;;;;;3.38;2.00;;;19.00;58.00;;;;;;5031140;28;20076;-69
2022/04/13 11:06:35;;;;;;;5.45;2.28;;;19.00;52.50;;;;;;5031016;28;20057;-70
2022/04/13 11:09:03;;;;;;;4.18;2.05;;;19.60;57.60;;;;;;5032390;28;20055;-67
2022/04/13 11:11:31;;;;;;;12.60;2.78;;;19.10;58.60;;;;;;5030697;28;20059;-67
2022/04/13 11:13:58;;;;;;;9.10;2.97;;;19.00;57.60;;;;;;5031152;28;20068;-67
2022/04/13 11:16:25;;;;;;;9.73;2.10;;;19.20;58.30;;;;;;5030890;28;20053;-69
2022/04/13 11:19:21;;;;;;;5.32;2.17;;;19.20;57.60;;;;;;5031094;28;20061;-67
2022/04/13 11:22:10;;;;;;;7.47;2.30;;;18.40;57.00;;;;;;5031768;28;20112;-66
2022/04/13 11:24:38;;;;;;;6.88;2.05;;;19.00;57.80;;;;;;5030243;28;20104;-67
2022/04/13 11:27:05;;;;;;;6.72;2.30;;;19.00;53.20;;;;;;5030952;28;20053;-67
2022/04/13 11:29:33;;;;;;;6.80;2.30;;;19.00;57.90;;;;;;5030186;28;20059;-69
2022/04/13 11:32:10;;;;;;;6.97;2.30;;;19.00;57.30;;;;;;5030969;28;20060;-69
2022/04/13 11:34:40;;;;;;;5.45;2.08;;;19.10;57.60;;;;;;5031803;28;20426;-69
2022/04/13 11:37:08;;;;;;;7.68;2.22;;;18.80;57.30;;;;;;5030811;28;20139;-68
2022/04/13 11:39:51;;;;;;;4.88;2.08;;;19.10;59.30;;;;;;5030336;28;20128;-69
2022/04/13 11:42:46;;;;;;;6.18;2.78;;;18.30;57.10;;;;;;5032008;28;20445;-68
2022/04/13 11:45:13;;;;;;;8.43;2.07;;;18.60;58.70;;;;;;5045190;28;20452;-69
2022/04/13 11:47:41;;;;;;;3.78;2.00;;;18.10;57.00;;;;;;5050701;28;20064;-69
2022/04/13 11:50:21;;;;;;;5.10;2.13;;;18.90;52.60;;;;;;5051954;28;20055;-69
2022/04/13 11:52:50;;;;;;;4.60;2.10;;;18.90;52.60;;;;;;5050492;28;20131;-69
2022/04/13 11:55:17;;;;;;;3.47;2.03;;;18.50;58.30;;;;;;5050838;28;20057;-69
2022/04/13 11:58:21;;;;;;;7.65;2.30;;;18.90;58.10;;;;;;5051331;28;20065;-69
2022/04/13 12:00:59;;;;;;;3.72;1.90;;;18.90;52.70;;;;;;5050096;28;20045;-69
2022/04/13 12:03:28;;;;;;;7.22;1.98;;;18.60;57.60;;;;;;5031542;28;20080;-69
2022/04/13 12:05:57;;;;;;;6.80;2.38;;;19.00;58.80;;;;;;5031793;28;20457;-69
2022/04/13 12:08:25;;;;;;;5.47;2.00;;;18.90;52.70;;;;;;5031516;28;20049;-68
2022/04/13 12:10:56;;;;;;;3.97;1.70;;;18.90;52.80;;;;;;5031474;28;20051;-68
2022/04/13 12:13:23;;;;;;;4.18;1.75;;;18.80;58.80;;;;;;5031418;28;20132;-69
2022/04/13 12:15:51;;;;;;;3.60;1.85;;;18.90;52.80;;;;;;5031890;28;20049;-68
2022/04/13 12:18:20;;;;;;;4.35;1.77;;;18.80;52.80;;;;;;5051381;28;20132;-69
2022/04/13 12:20:48;;;;;;;5.68;1.90;;;19.10;57.90;;;;;;5049902;28;20628;-69
2022/04/13 12:23:25;;;;;;;3.25;1.70;;;18.10;58.00;;;;;;5051176;28;20094;-69
2022/04/13 12:25:52;;;;;;;4.22;1.65;;;18.60;58.90;;;;;;5051233;28;20045;-69
2022/04/13 12:28:22;;;;;;;3.72;1.77;;;19.80;58.30;;;;;;5051262;28;20131;-69
2022/04/13 12:30:58;;;;;;;3.42;1.60;;;18.80;52.80;;;;;;5050048;28;20049;-69
2022/04/13 12:33:26;;;;;;;4.68;1.90;;;19.40;57.90;;;;;;5051016;28;20509;-68
2022/04/13 12:35:53;;;;;;;3.45;1.63;;;18.80;52.90;;;;;;5042480;28;20049;-68
2022/04/13 12:38:34;;;;;;;5.55;1.58;;;18.70;52.80;;;;;;5036026;28;20049;-69
2022/04/13 12:41:12;;;;;;;3.33;1.70;;;18.70;57.80;;;;;;5033446;28;20075;-68
2022/04/13 12:43:40;;;;;;;2.28;1.60;;;18.40;58.00;;;;;;5036833;28;20095;-68
2022/04/13 12:46:14;;;;;;;2.67;1.70;;;18.90;54.50;;;;;;5044209;28;20099;-69
2022/04/13 12:48:41;;;;;;;4.82;2.22;;;19.10;57.80;;;;;;5044739;28;20049;-69
2022/04/13 12:51:08;;;;;;;3.30;1.50;;;18.90;57.50;;;;;;5045332;28;20537;-69
2022/04/13 12:53:54;;;;;;;4.00;1.77;;;18.80;57.70;;;;;;5043050;28;20080;-68
2022/04/13 12:56:23;;;;;;;3.22;1.52;;;18.70;52.80;;;;;;5041748;28;20518;-68